sensor_id;sensor_type;location;lat;lon;timestamp;P1;P2;P0
73546;PMS7003;61807;48.384;-4.386;2022-12-11T00:01:19;20.00;10.75;7.00
73546;PMS7003;61807;48.384;-4.386;2022-12-11T00:03:46;12.75;10.00;7.25
73546;PMS7003;61807;48.384;-4.386;2022-12-11T00:06:12;11.75;11.00;7.75
73546;PMS7003;61807;48.384;-4.386;2022-12-11T00:08:39;11.50;11.50;7.00
73546;PMS7003;61807;48.384;-4.386;2022-12-11T00:11:07;10.25;8.50;7.00
73546;PMS7003;61807;48.384;-4.386;2022-12-11T00:13:33;15.75;11.75;7.50
73546;PMS7003;61807;48.384;-4.386;2022-12-11T00:15:59;10.75;7.50;6.00
73546;PMS7003;61807;48.384;-4.386;2022-12-11T00:18:25;17.25;11.50;6.75
73546;PMS7003;61807;48.384;-4.386;2022-12-11T00:20:51;11.00;10.25;6.25
73546;PMS7003;61807;48.384;-4.386;2022-12-11T00:23:16;8.00;8.00;6.50
73546;PMS7003;61807;48.384;-4.386;2022-12-11T00:25:42;11.75;7.00;6.00
73546;PMS7003;61807;48.384;-4.386;2022-12-11T00:28:10;11.25;8.75;6.25
73546;PMS7003;61807;48.384;-4.386;2022-12-11T00:30:40;11.00;11.00;7.50
73546;PMS7003;61807;48.384;-4.386;2022-12-11T00:33:06;9.25;9.25;7.00
73546;PMS7003;61807;48.384;-4.386;2022-12-11T00:35:32;12.50;8.00;6.00
73546;PMS7003;61807;48.384;-4.386;2022-12-11T00:37:58;14.75;9.00;6.00
73546;PMS7003;61807;48.384;-4.386;2022-12-11T00:40:23;13.25;10.25;6.50
73546;PMS7003;61807;48.384;-4.386;2022-12-11T00:42:48;7.50;7.50;6.00
73546;PMS7003;61807;48.384;-4.386;2022-12-11T00:45:14;9.50;7.00;4.00
73546;PMS7003;61807;48.384;-4.386;2022-12-11T00:47:39;12.50;9.25;7.00
73546;PMS7003;61807;48.384;-4.386;2022-12-11T00:50:05;9.25;8.75;6.75
73546;PMS7003;61807;48.384;-4.386;2022-12-11T00:52:31;9.75;7.00;6.00
73546;PMS7003;61807;48.384;-4.386;2022-12-11T00:54:56;10.00;8.00;6.00
73546;PMS7003;61807;48.384;-4.386;2022-12-11T00:57:22;10.00;7.75;4.75
73546;PMS7003;61807;48.384;-4.386;2022-12-11T00:59:47;9.25;7.75;6.50
73546;PMS7003;61807;48.384;-4.386;2022-12-11T01:02:12;13.50;8.25;6.50
73546;PMS7003;61807;48.384;-4.386;2022-12-11T01:04:38;8.50;7.50;6.00
73546;PMS7003;61807;48.384;-4.386;2022-12-11T01:07:03;8.50;6.00;5.00
73546;PMS7003;61807;48.384;-4.386;2022-12-11T01:09:29;10.00;7.00;6.00
73546;PMS7003;61807;48.384;-4.386;2022-12-11T01:12:12;9.25;7.00;6.25
73546;PMS7003;61807;48.384;-4.386;2022-12-11T01:14:38;11.00;8.00;6.00
73546;PMS7003;61807;48.384;-4.386;2022-12-11T01:17:03;13.75;10.75;7.25
73546;PMS7003;61807;48.384;-4.386;2022-12-11T01:19:28;5.25;5.25;4.75
73546;PMS7003;61807;48.384;-4.386;2022-12-11T01:21:54;7.75;6.75;5.50
73546;PMS7003;61807;48.384;-4.386;2022-12-11T01:24:19;12.75;7.00;5.75
73546;PMS7003;61807;48.384;-4.386;2022-12-11T01:26:45;7.00;7.00;6.00
73546;PMS7003;61807;48.384;-4.386;2022-12-11T01:29:10;8.75;7.50;5.75
73546;PMS7003;61807;48.384;-4.386;2022-12-11T01:31:35;10.75;8.00;4.25
73546;PMS7003;61807;48.384;-4.386;2022-12-11T01:34:02;9.25;7.50;5.50
73546;PMS7003;61807;48.384;-4.386;2022-12-11T01:36:27;7.00;7.00;5.00
73546;PMS7003;61807;48.384;-4.386;2022-12-11T01:38:53;11.75;9.00;7.00
73546;PMS7003;61807;48.384;-4.386;2022-12-11T01:41:18;8.00;8.00;7.25
73546;PMS7003;61807;48.384;-4.386;2022-12-11T01:46:28;8.00;6.50;3.75
73546;PMS7003;61807;48.384;-4.386;2022-12-11T01:48:55;17.75;11.25;7.50
73546;PMS7003;61807;48.384;-4.386;2022-12-11T01:51:22;9.00;7.00;6.00
73546;PMS7003;61807;48.384;-4.386;2022-12-11T01:53:50;7.50;7.00;6.00
73546;PMS7003;61807;48.384;-4.386;2022-12-11T01:56:20;8.50;8.50;6.00
73546;PMS7003;61807;48.384;-4.386;2022-12-11T01:58:48;8.00;6.75;4.25
73546;PMS7003;61807;48.384;-4.386;2022-12-11T02:01:19;9.75;9.00;7.00
73546;PMS7003;61807;48.384;-4.386;2022-12-11T02:03:51;12.75;8.25;6.25
73546;PMS7003;61807;48.384;-4.386;2022-12-11T02:06:37;12.75;9.50;7.00
73546;PMS7003;61807;48.384;-4.386;2022-12-11T02:09:08;13.00;9.75;6.75
73546;PMS7003;61807;48.384;-4.386;2022-12-11T02:12:23;13.75;8.00;6.00
73546;PMS7003;61807;48.384;-4.386;2022-12-11T02:14:47;10.25;10.25;7.00
73546;PMS7003;61807;48.384;-4.386;2022-12-11T02:17:31;17.00;12.00;8.00
73546;PMS7003;61807;48.384;-4.386;2022-12-11T02:20:05;12.75;8.50;7.00
73546;PMS7003;61807;48.384;-4.386;2022-12-11T02:22:50;8.75;7.50;6.50
73546;PMS7003;61807;48.384;-4.386;2022-12-11T02:25:34;8.00;6.00;4.25
73546;PMS7003;61807;48.384;-4.386;2022-12-11T02:30:42;6.50;4.00;3.50
73546;PMS7003;61807;48.384;-4.386;2022-12-11T02:33:15;5.00;5.00;4.00
73546;PMS7003;61807;48.384;-4.386;2022-12-11T02:35:43;3.50;3.50;3.00
73546;PMS7003;61807;48.384;-4.386;2022-12-11T02:38:14;7.75;7.00;4.00
73546;PMS7003;61807;48.384;-4.386;2022-12-11T02:40:44;7.00;2.75;2.75
73546;PMS7003;61807;48.384;-4.386;2022-12-11T02:43:13;2.75;2.75;1.75
73546;PMS7003;61807;48.384;-4.386;2022-12-11T02:45:41;3.75;2.00;1.75
73546;PMS7003;61807;48.384;-4.386;2022-12-11T02:48:10;2.50;1.00;1.00
73546;PMS7003;61807;48.384;-4.386;2022-12-11T02:50:38;5.00;2.00;2.00
73546;PMS7003;61807;48.384;-4.386;2022-12-11T02:53:08;2.50;2.50;2.00
73546;PMS7003;61807;48.384;-4.386;2022-12-11T02:55:36;7.75;3.00;2.25
73546;PMS7003;61807;48.384;-4.386;2022-12-11T02:58:06;2.00;2.00;2.00
73546;PMS7003;61807;48.384;-4.386;2022-12-11T03:00:38;3.00;3.00;2.00
73546;PMS7003;61807;48.384;-4.386;2022-12-11T03:03:04;3.25;3.25;2.25
73546;PMS7003;61807;48.384;-4.386;2022-12-11T03:05:29;5.75;2.75;2.50
73546;PMS7003;61807;48.384;-4.386;2022-12-11T03:07:55;10.25;4.50;3.00
73546;PMS7003;61807;48.384;-4.386;2022-12-11T03:10:21;10.25;6.25;4.25
73546;PMS7003;61807;48.384;-4.386;2022-12-11T03:12:48;7.25;6.50;4.50
73546;PMS7003;61807;48.384;-4.386;2022-12-11T03:15:17;8.50;6.75;6.00
73546;PMS7003;61807;48.384;-4.386;2022-12-11T03:25:51;6.75;5.50;5.00
73546;PMS7003;61807;48.384;-4.386;2022-12-11T03:28:22;8.00;6.75;6.00
73546;PMS7003;61807;48.384;-4.386;2022-12-11T03:30:51;9.50;8.00;6.00
73546;PMS7003;61807;48.384;-4.386;2022-12-11T03:33:22;8.75;8.75;6.00
73546;PMS7003;61807;48.384;-4.386;2022-12-11T03:35:54;7.50;6.50;3.75
73546;PMS7003;61807;48.384;-4.386;2022-12-11T03:38:27;10.25;8.00;6.00
73546;PMS7003;61807;48.384;-4.386;2022-12-11T03:40:57;11.25;7.00;5.25
73546;PMS7003;61807;48.384;-4.386;2022-12-11T03:43:25;8.25;7.00;5.00
73546;PMS7003;61807;48.384;-4.386;2022-12-11T03:45:54;12.00;7.00;6.00
73546;PMS7003;61807;48.384;-4.386;2022-12-11T03:48:20;11.75;10.00;7.00
73546;PMS7003;61807;48.384;-4.386;2022-12-11T03:50:48;8.75;8.75;7.00
73546;PMS7003;61807;48.384;-4.386;2022-12-11T03:53:15;7.50;7.25;6.00
73546;PMS7003;61807;48.384;-4.386;2022-12-11T03:55:42;11.25;11.00;7.75
73546;PMS7003;61807;48.384;-4.386;2022-12-11T03:58:08;13.00;11.75;7.00
73546;PMS7003;61807;48.384;-4.386;2022-12-11T04:00:34;10.50;8.25;7.00
73546;PMS7003;61807;48.384;-4.386;2022-12-11T04:03:00;11.00;8.75;7.00
73546;PMS7003;61807;48.384;-4.386;2022-12-11T04:05:38;12.00;8.25;7.75
73546;PMS7003;61807;48.384;-4.386;2022-12-11T04:08:08;12.50;11.00;6.25
73546;PMS7003;61807;48.384;-4.386;2022-12-11T04:10:34;11.50;9.00;6.00
73546;PMS7003;61807;48.384;-4.386;2022-12-11T04:13:00;10.50;10.00;6.25
73546;PMS7003;61807;48.384;-4.386;2022-12-11T04:15:25;12.00;8.00;6.75
73546;PMS7003;61807;48.384;-4.386;2022-12-11T04:17:50;11.25;8.00;7.00
73546;PMS7003;61807;48.384;-4.386;2022-12-11T04:20:34;8.00;8.00;7.00
73546;PMS7003;61807;48.384;-4.386;2022-12-11T04:23:18;7.50;6.00;5.00
73546;PMS7003;61807;48.384;-4.386;2022-12-11T04:26:03;11.00;7.00;6.25
73546;PMS7003;61807;48.384;-4.386;2022-12-11T04:28:33;11.00;10.00;5.50
73546;PMS7003;61807;48.384;-4.386;2022-12-11T04:30:59;14.50;8.50;6.00
73546;PMS7003;61807;48.384;-4.386;2022-12-11T04:33:25;11.50;10.00;7.00
73546;PMS7003;61807;48.384;-4.386;2022-12-11T04:35:50;11.75;8.00;7.00
73546;PMS7003;61807;48.384;-4.386;2022-12-11T04:38:16;15.25;7.25;6.00
73546;PMS7003;61807;48.384;-4.386;2022-12-11T04:40:41;11.25;8.00;6.00
73546;PMS7003;61807;48.384;-4.386;2022-12-11T04:43:06;13.25;8.00;6.75
73546;PMS7003;61807;48.384;-4.386;2022-12-11T04:45:32;14.00;12.00;7.00
73546;PMS7003;61807;48.384;-4.386;2022-12-11T04:47:57;9.25;9.25;7.75
73546;PMS7003;61807;48.384;-4.386;2022-12-11T04:50:23;8.00;8.00;6.00
73546;PMS7003;61807;48.384;-4.386;2022-12-11T04:52:52;7.25;7.00;5.75
73546;PMS7003;61807;48.384;-4.386;2022-12-11T04:55:19;12.00;7.50;6.00
73546;PMS7003;61807;48.384;-4.386;2022-12-11T04:57:44;8.50;6.00;4.00
73546;PMS7003;61807;48.384;-4.386;2022-12-11T05:00:11;10.50;9.00;6.75
73546;PMS7003;61807;48.384;-4.386;2022-12-11T05:02:37;12.50;7.50;6.00
73546;PMS7003;61807;48.384;-4.386;2022-12-11T05:05:05;8.50;6.00;3.00
73546;PMS7003;61807;48.384;-4.386;2022-12-11T05:07:31;6.50;6.50;5.50
73546;PMS7003;61807;48.384;-4.386;2022-12-11T05:09:57;12.25;7.75;5.75
73546;PMS7003;61807;48.384;-4.386;2022-12-11T05:12:22;11.00;7.00;5.75
73546;PMS7003;61807;48.384;-4.386;2022-12-11T05:14:50;9.50;8.00;6.00
73546;PMS7003;61807;48.384;-4.386;2022-12-11T05:17:19;11.00;7.00;5.50
73546;PMS7003;61807;48.384;-4.386;2022-12-11T05:19:48;10.50;6.50;3.75
73546;PMS7003;61807;48.384;-4.386;2022-12-11T05:22:15;10.50;6.50;5.25
73546;PMS7003;61807;48.384;-4.386;2022-12-11T05:24:41;6.00;6.00;5.00
73546;PMS7003;61807;48.384;-4.386;2022-12-11T05:27:07;12.00;9.00;6.50
73546;PMS7003;61807;48.384;-4.386;2022-12-11T05:29:32;10.75;7.75;6.00
73546;PMS7003;61807;48.384;-4.386;2022-12-11T05:31:58;7.00;7.00;6.00
73546;PMS7003;61807;48.384;-4.386;2022-12-11T05:34:23;14.75;7.00;5.00
73546;PMS7003;61807;48.384;-4.386;2022-12-11T05:36:48;8.25;7.00;5.00
73546;PMS7003;61807;48.384;-4.386;2022-12-11T05:39:14;10.00;10.00;6.00
73546;PMS7003;61807;48.384;-4.386;2022-12-11T05:41:40;9.00;7.00;5.25
73546;PMS7003;61807;48.384;-4.386;2022-12-11T05:44:05;7.00;4.50;3.00
73546;PMS7003;61807;48.384;-4.386;2022-12-11T05:46:30;13.75;7.50;6.00
73546;PMS7003;61807;48.384;-4.386;2022-12-11T05:48:57;10.75;7.00;6.00
73546;PMS7003;61807;48.384;-4.386;2022-12-11T05:51:24;6.25;6.25;4.00
73546;PMS7003;61807;48.384;-4.386;2022-12-11T05:53:51;10.00;6.75;5.00
73546;PMS7003;61807;48.384;-4.386;2022-12-11T05:56:18;9.25;6.00;5.00
73546;PMS7003;61807;48.384;-4.386;2022-12-11T05:58:45;10.00;6.00;5.00
73546;PMS7003;61807;48.384;-4.386;2022-12-11T06:01:16;12.50;10.00;6.00
73546;PMS7003;61807;48.384;-4.386;2022-12-11T06:03:50;10.50;10.00;7.00
73546;PMS7003;61807;48.384;-4.386;2022-12-11T06:06:16;12.75;7.75;5.00
73546;PMS7003;61807;48.384;-4.386;2022-12-11T06:08:41;14.75;9.25;5.50
73546;PMS7003;61807;48.384;-4.386;2022-12-11T06:11:07;13.75;7.00;5.75
73546;PMS7003;61807;48.384;-4.386;2022-12-11T06:13:33;12.75;10.25;6.00
73546;PMS7003;61807;48.384;-4.386;2022-12-11T06:16:02;15.50;10.00;5.75
73546;PMS7003;61807;48.384;-4.386;2022-12-11T06:18:29;13.50;7.00;5.75
73546;PMS7003;61807;48.384;-4.386;2022-12-11T06:20:56;17.75;8.00;3.50
73546;PMS7003;61807;48.384;-4.386;2022-12-11T06:23:22;15.50;7.00;4.50
73546;PMS7003;61807;48.384;-4.386;2022-12-11T06:25:47;13.25;6.50;5.00
73546;PMS7003;61807;48.384;-4.386;2022-12-11T06:28:13;10.50;5.00;3.00
73546;PMS7003;61807;48.384;-4.386;2022-12-11T06:30:39;15.50;6.75;3.00
73546;PMS7003;61807;48.384;-4.386;2022-12-11T06:33:04;17.75;10.00;5.50
73546;PMS7003;61807;48.384;-4.386;2022-12-11T06:35:29;17.25;6.50;4.00
73546;PMS7003;61807;48.384;-4.386;2022-12-11T06:37:55;10.25;4.00;3.00
73546;PMS7003;61807;48.384;-4.386;2022-12-11T06:40:21;14.75;6.00;3.25
73546;PMS7003;61807;48.384;-4.386;2022-12-11T06:42:47;10.50;3.00;2.00
73546;PMS7003;61807;48.384;-4.386;2022-12-11T06:45:12;8.75;4.00;2.00
73546;PMS7003;61807;48.384;-4.386;2022-12-11T06:47:38;9.00;3.50;2.00
73546;PMS7003;61807;48.384;-4.386;2022-12-11T06:50:03;10.50;4.50;3.25
73546;PMS7003;61807;48.384;-4.386;2022-12-11T06:52:29;9.75;5.00;4.00
73546;PMS7003;61807;48.384;-4.386;2022-12-11T06:54:54;2.00;2.00;2.00
73546;PMS7003;61807;48.384;-4.386;2022-12-11T06:57:21;9.75;5.25;2.25
73546;PMS7003;61807;48.384;-4.386;2022-12-11T06:59:46;3.75;3.25;2.00
73546;PMS7003;61807;48.384;-4.386;2022-12-11T07:02:15;11.00;3.75;2.00
73546;PMS7003;61807;48.384;-4.386;2022-12-11T07:04:42;10.50;2.75;1.00
73546;PMS7003;61807;48.384;-4.386;2022-12-11T07:07:08;7.25;4.00;1.00
73546;PMS7003;61807;48.384;-4.386;2022-12-11T07:09:35;2.75;2.00;1.25
73546;PMS7003;61807;48.384;-4.386;2022-12-11T07:12:03;8.75;3.00;2.00
73546;PMS7003;61807;48.384;-4.386;2022-12-11T07:14:29;6.25;4.00;2.00
73546;PMS7003;61807;48.384;-4.386;2022-12-11T07:16:55;6.25;2.75;2.00
73546;PMS7003;61807;48.384;-4.386;2022-12-11T07:19:21;5.00;2.00;2.00
73546;PMS7003;61807;48.384;-4.386;2022-12-11T07:21:46;9.50;2.00;2.00
73546;PMS7003;61807;48.384;-4.386;2022-12-11T07:24:12;2.00;2.00;1.50
73546;PMS7003;61807;48.384;-4.386;2022-12-11T07:26:37;0.75;0.00;0.00
73546;PMS7003;61807;48.384;-4.386;2022-12-11T07:29:03;3.50;1.75;1.00
73546;PMS7003;61807;48.384;-4.386;2022-12-11T07:31:28;1.75;1.75;1.00
73546;PMS7003;61807;48.384;-4.386;2022-12-11T07:33:54;1.75;1.00;1.00
73546;PMS7003;61807;48.384;-4.386;2022-12-11T07:36:21;4.25;2.25;2.00
73546;PMS7003;61807;48.384;-4.386;2022-12-11T07:38:47;3.50;1.00;1.00
73546;PMS7003;61807;48.384;-4.386;2022-12-11T07:41:13;3.25;3.00;2.00
73546;PMS7003;61807;48.384;-4.386;2022-12-11T07:43:39;3.25;3.25;2.50
73546;PMS7003;61807;48.384;-4.386;2022-12-11T07:46:06;4.50;2.00;1.00
73546;PMS7003;61807;48.384;-4.386;2022-12-11T07:48:35;10.50;2.00;1.50
73546;PMS7003;61807;48.384;-4.386;2022-12-11T07:51:13;5.25;2.00;2.00
73546;PMS7003;61807;48.384;-4.386;2022-12-11T07:53:40;5.00;3.25;2.00
73546;PMS7003;61807;48.384;-4.386;2022-12-11T07:56:06;2.00;2.00;1.50
73546;PMS7003;61807;48.384;-4.386;2022-12-11T07:58:32;6.25;2.75;1.00
73546;PMS7003;61807;48.384;-4.386;2022-12-11T08:00:58;13.00;2.00;2.00
73546;PMS7003;61807;48.384;-4.386;2022-12-11T08:03:23;6.50;3.00;2.00
73546;PMS7003;61807;48.384;-4.386;2022-12-11T08:05:50;5.75;2.00;1.75
73546;PMS7003;61807;48.384;-4.386;2022-12-11T08:08:16;2.00;2.00;1.00
73546;PMS7003;61807;48.384;-4.386;2022-12-11T08:10:42;8.50;5.25;2.00
73546;PMS7003;61807;48.384;-4.386;2022-12-11T08:13:08;3.75;2.00;1.00
73546;PMS7003;61807;48.384;-4.386;2022-12-11T08:15:34;3.25;3.25;2.25
73546;PMS7003;61807;48.384;-4.386;2022-12-11T08:17:59;7.25;5.00;3.00
73546;PMS7003;61807;48.384;-4.386;2022-12-11T08:20:25;9.00;5.00;3.25
73546;PMS7003;61807;48.384;-4.386;2022-12-11T08:22:50;13.25;5.50;3.75
73546;PMS7003;61807;48.384;-4.386;2022-12-11T08:25:16;12.75;5.00;4.00
73546;PMS7003;61807;48.384;-4.386;2022-12-11T08:27:41;16.25;4.75;3.25
73546;PMS7003;61807;48.384;-4.386;2022-12-11T08:30:07;6.25;4.00;2.00
73546;PMS7003;61807;48.384;-4.386;2022-12-11T08:32:33;7.00;4.25;3.25
73546;PMS7003;61807;48.384;-4.386;2022-12-11T08:34:59;16.50;7.50;4.50
73546;PMS7003;61807;48.384;-4.386;2022-12-11T08:37:24;16.50;10.00;6.00
73546;PMS7003;61807;48.384;-4.386;2022-12-11T08:39:50;18.25;7.75;5.00
73546;PMS7003;61807;48.384;-4.386;2022-12-11T08:42:15;15.75;6.00;5.00
73546;PMS7003;61807;48.384;-4.386;2022-12-11T08:44:41;13.00;7.25;5.25
73546;PMS7003;61807;48.384;-4.386;2022-12-11T08:47:06;13.75;5.50;3.25
73546;PMS7003;61807;48.384;-4.386;2022-12-11T08:49:33;13.25;8.75;5.25
73546;PMS7003;61807;48.384;-4.386;2022-12-11T08:51:59;6.50;5.00;3.50
73546;PMS7003;61807;48.384;-4.386;2022-12-11T08:54:25;9.00;5.25;3.00
73546;PMS7003;61807;48.384;-4.386;2022-12-11T08:56:50;16.75;7.00;3.50
73546;PMS7003;61807;48.384;-4.386;2022-12-11T08:59:16;17.00;7.75;3.00
73546;PMS7003;61807;48.384;-4.386;2022-12-11T09:01:42;11.50;5.75;3.00
73546;PMS7003;61807;48.384;-4.386;2022-12-11T09:04:07;8.25;6.00;3.00
73546;PMS7003;61807;48.384;-4.386;2022-12-11T09:06:33;12.25;6.25;3.50
73546;PMS7003;61807;48.384;-4.386;2022-12-11T09:08:59;13.25;6.00;5.00
73546;PMS7003;61807;48.384;-4.386;2022-12-11T09:11:26;8.50;7.00;4.50
73546;PMS7003;61807;48.384;-4.386;2022-12-11T09:13:53;9.25;6.00;4.50
73546;PMS7003;61807;48.384;-4.386;2022-12-11T09:16:20;6.25;5.75;3.50
73546;PMS7003;61807;48.384;-4.386;2022-12-11T09:18:48;7.50;5.75;3.00
73546;PMS7003;61807;48.384;-4.386;2022-12-11T09:21:16;9.50;5.00;3.00
73546;PMS7003;61807;48.384;-4.386;2022-12-11T09:23:43;7.00;5.50;3.00
73546;PMS7003;61807;48.384;-4.386;2022-12-11T09:26:10;11.00;6.75;5.00
73546;PMS7003;61807;48.384;-4.386;2022-12-11T09:28:37;16.25;3.50;2.00
73546;PMS7003;61807;48.384;-4.386;2022-12-11T09:31:10;10.75;6.25;3.00
73546;PMS7003;61807;48.384;-4.386;2022-12-11T09:33:45;19.00;7.00;4.50
73546;PMS7003;61807;48.384;-4.386;2022-12-11T09:36:11;14.75;6.50;5.00
73546;PMS7003;61807;48.384;-4.386;2022-12-11T09:38:36;12.00;8.75;5.00
73546;PMS7003;61807;48.384;-4.386;2022-12-11T09:41:25;19.50;10.75;5.75
73546;PMS7003;61807;48.384;-4.386;2022-12-11T09:46:39;22.00;11.25;6.75
73546;PMS7003;61807;48.384;-4.386;2022-12-11T09:49:10;6.00;5.50;4.50
73546;PMS7003;61807;48.384;-4.386;2022-12-11T09:52:47;8.25;6.25;5.00
73546;PMS7003;61807;48.384;-4.386;2022-12-11T09:55:03;16.25;10.75;6.00
73546;PMS7003;61807;48.384;-4.386;2022-12-11T10:00:22;19.50;11.50;6.00
73546;PMS7003;61807;48.384;-4.386;2022-12-11T10:06:02;13.50;8.00;4.25
73546;PMS7003;61807;48.384;-4.386;2022-12-11T10:08:59;15.50;11.00;6.50
73546;PMS7003;61807;48.384;-4.386;2022-12-11T10:17:34;11.25;7.00;4.25
73546;PMS7003;61807;48.384;-4.386;2022-12-11T10:22:55;13.00;7.50;5.50
73546;PMS7003;61807;48.384;-4.386;2022-12-11T10:25:32;10.75;7.00;5.00
73546;PMS7003;61807;48.384;-4.386;2022-12-11T10:28:07;14.75;7.75;6.00
73546;PMS7003;61807;48.384;-4.386;2022-12-11T10:30:38;12.50;8.50;5.50
73546;PMS7003;61807;48.384;-4.386;2022-12-11T10:33:13;10.50;7.50;4.00
73546;PMS7003;61807;48.384;-4.386;2022-12-11T10:35:50;12.00;7.00;4.00
73546;PMS7003;61807;48.384;-4.386;2022-12-11T10:38:23;11.25;5.75;4.00
73546;PMS7003;61807;48.384;-4.386;2022-12-11T10:40:58;12.75;6.25;3.25
73546;PMS7003;61807;48.384;-4.386;2022-12-11T10:43:34;12.25;8.25;6.50
73546;PMS7003;61807;48.384;-4.386;2022-12-11T10:46:04;14.00;9.25;6.00
73546;PMS7003;61807;48.384;-4.386;2022-12-11T10:48:30;9.75;7.00;4.50
73546;PMS7003;61807;48.384;-4.386;2022-12-11T10:51:05;10.50;7.00;4.00
73546;PMS7003;61807;48.384;-4.386;2022-12-11T10:53:33;10.75;9.75;5.25
73546;PMS7003;61807;48.384;-4.386;2022-12-11T10:55:59;19.00;8.75;6.50
73546;PMS7003;61807;48.384;-4.386;2022-12-11T10:58:27;13.25;11.25;8.00
73546;PMS7003;61807;48.384;-4.386;2022-12-11T11:03:30;10.25;9.75;6.00
73546;PMS7003;61807;48.384;-4.386;2022-12-11T11:06:13;17.50;10.50;6.00
73546;PMS7003;61807;48.384;-4.386;2022-12-11T11:08:42;17.50;10.50;5.25
73546;PMS7003;61807;48.384;-4.386;2022-12-11T11:11:52;12.50;7.00;4.75
73546;PMS7003;61807;48.384;-4.386;2022-12-11T11:14:18;15.25;9.25;6.00
73546;PMS7003;61807;48.384;-4.386;2022-12-11T11:16:45;14.25;6.75;6.00
73546;PMS7003;61807;48.384;-4.386;2022-12-11T11:21:51;8.50;8.00;5.75
73546;PMS7003;61807;48.384;-4.386;2022-12-11T11:24:34;8.75;3.25;2.50
73546;PMS7003;61807;48.384;-4.386;2022-12-11T11:27:10;10.75;4.00;3.00
73546;PMS7003;61807;48.384;-4.386;2022-12-11T11:29:38;6.25;5.25;3.00
73546;PMS7003;61807;48.384;-4.386;2022-12-11T11:32:13;11.50;4.75;4.00
73546;PMS7003;61807;48.384;-4.386;2022-12-11T11:37:41;7.00;4.25;3.50
73546;PMS7003;61807;48.384;-4.386;2022-12-11T11:40:10;11.25;4.00;3.00
73546;PMS7003;61807;48.384;-4.386;2022-12-11T11:42:51;6.75;6.75;4.00
73546;PMS7003;61807;48.384;-4.386;2022-12-11T11:45:28;11.00;7.75;4.75
73546;PMS7003;61807;48.384;-4.386;2022-12-11T11:48:04;8.50;6.50;4.00
73546;PMS7003;61807;48.384;-4.386;2022-12-11T11:50:36;15.25;10.75;7.00
73546;PMS7003;61807;48.384;-4.386;2022-12-11T11:53:11;8.50;6.75;4.00
73546;PMS7003;61807;48.384;-4.386;2022-12-11T11:55:51;11.75;8.00;4.00
73546;PMS7003;61807;48.384;-4.386;2022-12-11T11:58:26;12.50;9.00;6.75
73546;PMS7003;61807;48.384;-4.386;2022-12-11T12:01:16;17.50;9.25;5.25
73546;PMS7003;61807;48.384;-4.386;2022-12-11T12:03:44;14.25;10.00;7.00
73546;PMS7003;61807;48.384;-4.386;2022-12-11T12:06:23;19.00;12.00;7.75
73546;PMS7003;61807;48.384;-4.386;2022-12-11T12:17:31;19.50;8.00;5.25
73546;PMS7003;61807;48.384;-4.386;2022-12-11T12:20:47;13.00;8.75;6.00
73546;PMS7003;61807;48.384;-4.386;2022-12-11T12:26:22;12.00;11.50;7.00
73546;PMS7003;61807;48.384;-4.386;2022-12-11T12:37:13;9.25;8.00;5.50
73546;PMS7003;61807;48.384;-4.386;2022-12-11T12:42:36;9.50;8.50;4.50
73546;PMS7003;61807;48.384;-4.386;2022-12-11T12:47:42;9.25;8.75;6.75
73546;PMS7003;61807;48.384;-4.386;2022-12-11T12:50:20;10.50;8.25;5.00
73546;PMS7003;61807;48.384;-4.386;2022-12-11T12:52:49;8.50;6.75;5.25
73546;PMS7003;61807;48.384;-4.386;2022-12-11T12:57:54;8.75;5.75;3.50
73546;PMS7003;61807;48.384;-4.386;2022-12-11T13:00:35;8.50;7.75;4.25
73546;PMS7003;61807;48.384;-4.386;2022-12-11T13:03:24;8.00;6.25;4.00
73546;PMS7003;61807;48.384;-4.386;2022-12-11T13:06:00;10.50;9.00;5.50
73546;PMS7003;61807;48.384;-4.386;2022-12-11T13:08:34;8.00;4.75;3.25
73546;PMS7003;61807;48.384;-4.386;2022-12-11T13:11:06;11.50;8.50;4.50
73546;PMS7003;61807;48.384;-4.386;2022-12-11T13:13:38;7.75;6.25;5.00
73546;PMS7003;61807;48.384;-4.386;2022-12-11T13:16:07;3.25;3.00;2.00
73546;PMS7003;61807;48.384;-4.386;2022-12-11T13:18:38;10.00;8.75;5.00
73546;PMS7003;61807;48.384;-4.386;2022-12-11T13:21:24;9.50;9.00;6.75
73546;PMS7003;61807;48.384;-4.386;2022-12-11T13:23:50;6.50;5.50;4.25
73546;PMS7003;61807;48.384;-4.386;2022-12-11T13:26:26;11.75;5.75;4.25
73546;PMS7003;61807;48.384;-4.386;2022-12-11T13:28:55;9.25;7.75;4.75
73546;PMS7003;61807;48.384;-4.386;2022-12-11T13:31:25;12.00;9.00;7.50
73546;PMS7003;61807;48.384;-4.386;2022-12-11T13:33:56;9.50;8.50;7.00
73546;PMS7003;61807;48.384;-4.386;2022-12-11T13:36:33;6.50;6.50;4.50
73546;PMS7003;61807;48.384;-4.386;2022-12-11T13:39:02;8.00;7.75;5.75
73546;PMS7003;61807;48.384;-4.386;2022-12-11T13:41:31;9.25;7.50;5.00
73546;PMS7003;61807;48.384;-4.386;2022-12-11T13:44:00;8.75;5.50;4.00
73546;PMS7003;61807;48.384;-4.386;2022-12-11T13:46:28;11.25;8.00;4.50
73546;PMS7003;61807;48.384;-4.386;2022-12-11T13:48:58;12.00;9.00;6.00
73546;PMS7003;61807;48.384;-4.386;2022-12-11T13:51:26;12.75;9.75;5.00
73546;PMS7003;61807;48.384;-4.386;2022-12-11T13:54:10;10.25;7.25;4.50
73546;PMS7003;61807;48.384;-4.386;2022-12-11T13:56:39;13.75;9.00;7.75
73546;PMS7003;61807;48.384;-4.386;2022-12-11T13:59:17;11.00;8.50;6.00
73546;PMS7003;61807;48.384;-4.386;2022-12-11T14:01:46;9.25;9.25;6.00
73546;PMS7003;61807;48.384;-4.386;2022-12-11T14:04:13;13.25;9.25;5.25
73546;PMS7003;61807;48.384;-4.386;2022-12-11T14:06:42;10.50;8.00;5.00
73546;PMS7003;61807;48.384;-4.386;2022-12-11T14:09:08;9.00;8.75;6.25
73546;PMS7003;61807;48.384;-4.386;2022-12-11T14:11:40;11.00;9.00;5.00
73546;PMS7003;61807;48.384;-4.386;2022-12-11T14:14:13;11.25;9.50;5.75
73546;PMS7003;61807;48.384;-4.386;2022-12-11T14:16:49;9.50;7.25;4.75
73546;PMS7003;61807;48.384;-4.386;2022-12-11T14:19:17;11.00;8.25;5.00
73546;PMS7003;61807;48.384;-4.386;2022-12-11T14:21:54;13.50;9.00;5.25
73546;PMS7003;61807;48.384;-4.386;2022-12-11T14:24:24;12.00;10.00;6.50
73546;PMS7003;61807;48.384;-4.386;2022-12-11T14:26:51;15.00;11.75;7.75
73546;PMS7003;61807;48.384;-4.386;2022-12-11T14:29:28;12.00;8.75;7.00
73546;PMS7003;61807;48.384;-4.386;2022-12-11T14:31:56;16.00;11.00;6.50
73546;PMS7003;61807;48.384;-4.386;2022-12-11T14:34:31;10.75;10.75;7.50
73546;PMS7003;61807;48.384;-4.386;2022-12-11T14:37:05;8.00;8.00;7.00
73546;PMS7003;61807;48.384;-4.386;2022-12-11T14:39:34;22.25;19.00;12.25
73546;PMS7003;61807;48.384;-4.386;2022-12-11T14:42:07;15.00;11.25;9.00
73546;PMS7003;61807;48.384;-4.386;2022-12-11T14:45:00;12.25;11.25;8.00
73546;PMS7003;61807;48.384;-4.386;2022-12-11T14:47:23;10.75;9.50;7.50
73546;PMS7003;61807;48.384;-4.386;2022-12-11T14:52:35;10.25;9.00;7.50
73546;PMS7003;61807;48.384;-4.386;2022-12-11T14:57:49;14.50;13.00;9.00
73546;PMS7003;61807;48.384;-4.386;2022-12-11T15:00:30;13.75;10.00;7.25
73546;PMS7003;61807;48.384;-4.386;2022-12-11T15:03:00;11.25;9.50;6.25
73546;PMS7003;61807;48.384;-4.386;2022-12-11T15:05:29;10.50;8.50;6.00
73546;PMS7003;61807;48.384;-4.386;2022-12-11T15:08:30;11.25;9.25;8.00
73546;PMS7003;61807;48.384;-4.386;2022-12-11T15:11:06;9.75;9.00;7.00
73546;PMS7003;61807;48.384;-4.386;2022-12-11T15:13:36;16.50;14.50;10.00
73546;PMS7003;61807;48.384;-4.386;2022-12-11T15:16:12;20.25;18.75;14.00
73546;PMS7003;61807;48.384;-4.386;2022-12-11T15:18:39;20.50;15.25;10.50
73546;PMS7003;61807;48.384;-4.386;2022-12-11T15:21:07;17.25;11.25;9.00
73546;PMS7003;61807;48.384;-4.386;2022-12-11T15:23:46;16.50;14.50;9.00
73546;PMS7003;61807;48.384;-4.386;2022-12-11T15:26:16;13.25;10.75;8.50
73546;PMS7003;61807;48.384;-4.386;2022-12-11T15:28:43;15.50;14.00;8.50